Time;durP1;ratioP1;P1;durP2;ratioP2;P2;SDS_P1;SDS_P2;PMS_P1;PMS_P2;Temp;Humidity;BMP_temperature;BMP_pressure;BME280_temperature;BME280_humidity;BME280_pressure;Samples;Min_cycle;Max_cycle;Signal;HPM_P1;HPM_P2
2022/07/23 00:01:21;;;;;;;14.20;9.25;;;;;;;15.00;75.76;100690.16;10198718;28;20712;-79
2022/07/23 00:06:29;;;;;;;14.25;9.90;;;;;;;14.99;75.69;100696.59;10200261;28;21271;-79
2022/07/23 00:11:32;;;;;;;14.88;10.80;;;;;;;14.88;76.02;100683.22;10188618;29;20067;-80
2022/07/23 00:16:36;;;;;;;13.98;10.43;;;;;;;14.98;76.19;100671.38;10195298;28;20055;-78
2022/07/23 00:21:39;;;;;;;13.35;10.30;;;;;;;14.58;76.76;100687.81;10208505;28;20062;-78
2022/07/23 00:26:42;;;;;;;14.27;10.63;;;;;;;14.72;76.88;100684.66;10201231;28;20802;-79
2022/07/23 00:31:46;;;;;;;15.35;11.23;;;;;;;14.80;76.63;100678.53;10209328;28;20587;-80
2022/07/23 00:36:49;;;;;;;12.55;10.50;;;;;;;14.78;76.97;100684.09;10216939;28;20055;-78
2022/07/23 00:41:52;;;;;;;13.15;10.68;;;;;;;14.95;76.54;100690.63;10205124;28;20079;-79
2022/07/23 00:46:58;;;;;;;15.63;10.32;;;;;;;15.09;76.21;100689.31;10195787;28;20073;-78
2022/07/23 00:52:03;;;;;;;15.65;10.48;;;;;;;15.11;74.82;100708.06;10191669;28;20095;-78
2022/07/23 00:57:06;;;;;;;22.38;11.10;;;;;;;14.88;75.73;100702.16;10186108;28;20209;-77
2022/07/23 01:02:10;;;;;;;12.07;9.75;;;;;;;14.87;76.22;100720.25;10216323;28;20210;-77
2022/07/23 01:07:13;;;;;;;27.80;11.05;;;;;;;14.65;76.83;100712.44;10191347;28;20090;-78
2022/07/23 01:12:16;;;;;;;17.80;11.18;;;;;;;14.58;77.59;100712.97;10216491;28;20597;-78
2022/07/23 01:17:20;;;;;;;17.00;11.15;;;;;;;14.52;77.99;100715.41;10208776;28;20047;-79
2022/07/23 01:22:24;;;;;;;20.02;10.95;;;;;;;14.36;78.79;100705.97;10198751;28;20118;-78
2022/07/23 01:27:28;;;;;;;13.20;11.00;;;;;;;14.72;77.63;100702.75;10222091;28;20044;-77
2022/07/23 01:32:37;;;;;;;13.98;11.40;;;;;;;14.63;78.36;100709.88;10204892;28;20047;-77
2022/07/23 01:37:40;;;;;;;16.08;11.57;;;;;;;14.86;77.26;100709.56;10224860;28;20051;-77
2022/07/23 01:42:45;;;;;;;17.58;11.18;;;;;;;14.97;77.21;100712.09;10196962;28;20051;-80
2022/07/23 01:47:49;;;;;;;14.13;11.52;;;;;;;15.09;77.31;100685.75;10195857;28;20055;-78
2022/07/23 01:52:52;;;;;;;15.57;11.75;;;;;;;15.00;78.56;100679.34;10210035;28;20099;-79
2022/07/23 01:57:56;;;;;;;17.50;13.10;;;;;;;14.80;80.68;100675.81;10210452;28;20047;-78
2022/07/23 02:03:04;;;;;;;24.08;13.98;;;;;;;14.71;82.86;100664.03;10218597;28;20172;-78
2022/07/23 02:08:07;;;;;;;40.63;14.38;;;;;;;14.60;85.83;100647.97;10212377;28;20051;-78
2022/07/23 02:13:13;;;;;;;28.38;16.10;;;;;;;14.59;86.42;100636.31;10233938;28;20048;-78
2022/07/23 02:18:20;;;;;;;22.55;16.02;;;;;;;14.59;86.40;100633.59;10208269;28;20487;-78
2022/07/23 02:23:23;;;;;;;26.95;15.35;;;;;;;14.57;86.92;100642.84;10211032;28;20061;-78
2022/07/23 02:28:30;;;;;;;22.58;15.15;;;;;;;14.53;86.94;100619.81;10243873;28;20043;-78
2022/07/23 02:33:33;;;;;;;26.88;15.55;;;;;;;14.34;86.59;100618.81;10214537;28;20172;-78
2022/07/23 02:38:36;;;;;;;27.48;15.60;;;;;;;14.36;86.66;100634.88;10210033;28;20580;-78
2022/07/23 02:43:41;;;;;;;43.67;16.55;;;;;;;14.20;86.03;100650.78;10214671;28;20174;-78
2022/07/23 02:48:44;;;;;;;67.78;16.67;;;;;;;13.90;86.96;100669.69;10209274;28;20055;-78
2022/07/23 02:53:47;;;;;;;47.65;18.10;;;;;;;13.90;87.23;100656.19;10223880;28;20040;-78
2022/07/23 02:58:51;;;;;;;35.47;17.48;;;;;;;14.16;87.61;100650.22;10220697;28;20055;-78
2022/07/23 03:03:54;;;;;;;39.97;18.73;;;;;;;14.09;86.92;100668.00;10221822;28;20105;-78
2022/07/23 03:08:57;;;;;;;37.75;17.48;;;;;;;13.74;87.78;100665.78;10198867;28;20087;-78
2022/07/23 03:14:02;;;;;;;29.30;16.88;;;;;;;13.58;88.19;100658.22;10196856;28;20101;-77
2022/07/23 03:19:05;;;;;;;29.48;17.38;;;;;;;13.95;87.29;100650.34;10196346;29;20454;-78
2022/07/23 03:24:09;;;;;;;34.03;17.30;;;;;;;14.11;87.67;100649.78;10199021;28;20054;-78
2022/07/23 03:29:13;;;;;;;26.77;15.65;;;;;;;14.24;87.55;100644.13;10207591;28;20082;-78
2022/07/23 03:34:18;;;;;;;16.65;12.63;;;;;;;14.17;86.98;100643.81;10214854;28;20043;-77
2022/07/23 03:39:21;;;;;;;19.45;14.20;;;;;;;14.14;86.67;100665.72;10202268;28;20058;-77
2022/07/23 03:44:25;;;;;;;21.90;13.32;;;;;;;14.08;87.25;100659.03;10206510;28;20055;-78
2022/07/23 03:49:28;;;;;;;26.80;14.10;;;;;;;14.06;87.30;100652.06;10196764;28;20070;-78
2022/07/23 03:54:31;;;;;;;31.52;15.38;;;;;;;14.07;86.36;100661.88;10197352;28;20050;-77
2022/07/23 03:59:35;;;;;;;35.45;13.85;;;;;;;13.89;86.94;100667.09;10214187;28;20520;-78
2022/07/23 04:04:38;;;;;;;29.75;14.45;;;;;;;13.83;87.30;100660.41;10197865;28;20055;-78
2022/07/23 04:09:41;;;;;;;22.35;13.45;;;;;;;13.96;87.66;100645.78;10201521;28;20057;-77
2022/07/23 04:14:49;;;;;;;29.80;14.63;;;;;;;13.96;87.38;100657.47;10193551;28;20071;-77
2022/07/23 04:19:52;;;;;;;21.27;14.57;;;;;;;14.00;87.65;100658.88;10206545;28;20118;-77
2022/07/23 04:24:58;;;;;;;19.88;13.00;;;;;;;14.13;88.05;100658.63;10202847;28;20146;-77
2022/07/23 04:30:02;;;;;;;21.80;13.23;;;;;;;14.12;86.65;100665.00;10200457;28;20060;-78
2022/07/23 04:35:05;;;;;;;24.33;14.40;;;;;;;14.03;87.68;100664.00;10201689;28;20496;-78
2022/07/23 04:40:12;;;;;;;27.98;15.15;;;;;;;14.18;87.78;100660.88;10215916;28;20044;-78
2022/07/23 04:45:16;;;;;;;23.25;14.10;;;;;;;14.19;87.52;100665.31;10219557;28;20049;-78
2022/07/23 04:50:21;;;;;;;19.58;14.60;;;;;;;14.04;87.42;100662.16;10234796;28;20163;-78
2022/07/23 04:55:27;;;;;;;24.55;13.88;;;;;;;14.08;87.43;100667.13;10224902;28;20496;-77
2022/07/23 05:00:31;;;;;;;20.88;13.68;;;;;;;14.04;86.77;100672.94;10219884;28;20058;-78
2022/07/23 05:05:34;;;;;;;22.95;14.70;;;;;;;14.03;86.66;100669.41;10205604;28;20047;-77
2022/07/23 05:10:44;;;;;;;19.55;13.85;;;;;;;14.00;87.01;100677.78;10229537;28;20530;-77
2022/07/23 05:15:50;;;;;;;29.42;14.60;;;;;;;14.31;87.77;100675.81;10213224;28;20052;-78
2022/07/23 05:20:53;;;;;;;25.83;15.10;;;;;;;14.38;86.94;100679.72;10195038;28;20114;-77
2022/07/23 05:25:58;;;;;;;11.00;8.50;;;;;;;14.48;87.29;100681.53;10206689;28;20053;-77
2022/07/23 05:31:04;;;;;;;14.00;7.13;;;;;;;14.71;87.02;100684.81;10208365;28;20091;-78
2022/07/23 05:36:08;;;;;;;13.55;9.13;;;;;;;14.98;87.14;100673.25;10226237;28;20047;-77
2022/07/23 05:41:18;;;;;;;10.32;6.85;;;;;;;15.25;86.56;100675.16;10218142;28;20055;-78
2022/07/23 05:46:23;;;;;;;14.10;7.30;;;;;;;14.96;84.96;100694.16;10192333;28;20047;-77
2022/07/23 05:51:31;;;;;;;11.70;7.32;;;;;;;15.15;86.08;100691.41;10199909;28;20052;-77
2022/07/23 05:56:34;;;;;;;16.52;11.27;;;;;;;15.37;85.78;100694.81;10205643;28;20050;-78
2022/07/23 06:01:38;;;;;;;17.33;12.23;;;;;;;15.54;85.62;100695.88;10218856;28;20051;-78
2022/07/23 06:06:44;;;;;;;10.25;7.63;;;;;;;15.58;84.85;100691.88;10228943;28;20099;-78
2022/07/23 06:11:47;;;;;;;18.05;10.93;;;;;;;15.79;85.52;100700.59;10219477;28;20062;-78
2022/07/23 06:16:51;;;;;;;14.02;6.85;;;;;;;15.88;84.57;100701.56;10228427;28;20098;-77
2022/07/23 06:21:54;;;;;;;15.30;10.60;;;;;;;15.91;82.74;100704.81;10201026;28;20394;-77
2022/07/23 06:26:57;;;;;;;9.70;8.70;;;;;;;16.00;82.61;100708.47;10209626;28;20521;-77
2022/07/23 06:32:01;;;;;;;13.38;8.57;;;;;;;15.63;78.65;100720.22;10205762;28;20055;-77
2022/07/23 06:37:04;;;;;;;11.32;8.70;;;;;;;15.88;77.57;100720.53;10210765;28;20138;-78
2022/07/23 06:42:07;;;;;;;10.07;7.47;;;;;;;16.15;78.82;100719.63;10218123;28;20239;-77
2022/07/23 06:47:19;;;;;;;9.40;6.82;;;;;;;16.72;80.37;100725.63;10229783;28;20053;-77
2022/07/23 06:52:23;;;;;;;12.07;8.63;;;;;;;17.02;81.64;100721.63;10231363;28;20397;-77
2022/07/23 06:57:26;;;;;;;13.73;8.35;;;;;;;17.29;79.61;100725.25;10235703;28;20091;-77
2022/07/23 07:02:30;;;;;;;13.85;7.38;;;;;;;16.41;72.12;100738.75;10238321;28;20407;-77
2022/07/23 07:07:33;;;;;;;14.15;5.40;;;;;;;16.95;75.55;100736.00;10220714;28;20047;-77
2022/07/23 07:12:36;;;;;;;8.57;5.88;;;;;;;16.90;72.59;100733.78;10202268;28;20051;-77
2022/07/23 07:17:42;;;;;;;12.35;7.18;;;;;;;16.67;74.05;100732.53;10206825;28;20047;-77
2022/07/23 07:22:45;;;;;;;8.35;5.00;;;;;;;17.62;69.56;100736.31;10203254;28;20294;-77
2022/07/23 07:27:47;;;;;;;11.50;6.32;;;;;;;17.85;70.57;100742.88;10205828;28;20052;-78
2022/07/23 07:32:52;;;;;;;12.30;6.03;;;;;;;17.69;66.42;100749.09;10203877;28;20126;-78
2022/07/23 07:37:58;;;;;;;12.20;6.25;;;;;;;18.42;71.79;100752.25;10200382;28;20051;-78
2022/07/23 07:43:03;;;;;;;10.13;6.13;;;;;;;18.35;73.19;100763.81;10198900;28;21294;-78
2022/07/23 07:48:07;;;;;;;6.03;4.95;;;;;;;18.30;67.50;100768.88;10208827;28;20078;-78
2022/07/23 07:53:10;;;;;;;6.53;4.15;;;;;;;21.20;64.20;100765.88;10209537;28;20051;-78
2022/07/23 07:58:13;;;;;;;5.32;3.28;;;;;;;22.61;56.21;100760.44;10219519;28;20077;-78
2022/07/23 08:03:17;;;;;;;4.50;2.90;;;;;;;20.44;55.59;100778.53;10206512;28;20055;-78
2022/07/23 08:08:21;;;;;;;6.50;3.70;;;;;;;21.26;62.85;100766.16;10213408;28;20132;-79
2022/07/23 08:13:24;;;;;;;7.00;4.10;;;;;;;21.32;58.95;100782.66;10207464;28;20117;-79
2022/07/23 08:18:28;;;;;;;5.57;3.60;;;;;;;20.16;65.12;100783.59;10205717;28;20066;-78
2022/07/23 08:23:31;;;;;;;8.07;4.65;;;;;;;19.87;56.83;100782.34;10207483;28;20532;-78
2022/07/23 08:28:34;;;;;;;5.47;4.40;;;;;;;21.42;61.27;100772.31;10204330;28;20051;-78
2022/07/23 08:33:38;;;;;;;3.85;2.95;;;;;;;21.26;60.08;100775.22;10202119;28;20082;-78
2022/07/23 08:38:41;;;;;;;8.18;3.60;;;;;;;21.55;53.19;100779.00;10189672;29;21974;-77
2022/07/23 08:43:45;;;;;;;6.50;3.55;;;;;;;20.43;57.91;100781.41;10199862;28;20458;-77
2022/07/23 08:48:50;;;;;;;4.50;4.10;;;;;;;20.75;61.11;100785.81;10192952;28;20486;-78
2022/07/23 08:53:54;;;;;;;4.70;3.30;;;;;;;20.89;55.04;100786.91;10208581;28;20066;-77
2022/07/23 08:58:57;;;;;;;4.38;3.97;;;;;;;21.16;50.96;100780.91;10230439;28;20174;-76
2022/07/23 09:04:02;;;;;;;4.10;2.92;;;;;;;21.37;51.86;100773.91;10226708;28;20050;-76
2022/07/23 09:09:17;;;;;;;6.30;4.07;;;;;;;22.27;51.75;100781.94;10232728;28;20523;-77
2022/07/23 09:14:37;;;;;;;8.13;4.43;;;;;;;23.83;50.82;100779.41;10209907;28;20550;-76
2022/07/23 09:19:42;;;;;;;8.13;5.22;;;;;;;22.88;50.55;100786.22;10202513;28;20047;-76
2022/07/23 09:25:03;;;;;;;6.60;4.28;;;;;;;22.24;48.94;100789.66;10208860;28;20055;-76
2022/07/23 09:30:07;;;;;;;6.45;4.82;;;;;;;22.37;46.83;100787.09;10185842;28;20134;-77
2022/07/23 09:35:11;;;;;;;6.78;4.63;;;;;;;21.32;49.02;100785.38;10201239;28;20194;-76
2022/07/23 09:40:17;;;;;;;7.05;4.10;;;;;;;23.85;47.29;100780.03;10203528;28;20120;-77
2022/07/23 09:45:20;;;;;;;4.35;3.75;;;;;;;23.12;45.81;100785.84;10228116;28;20098;-77
2022/07/23 09:50:24;;;;;;;7.85;3.80;;;;;;;21.73;46.15;100795.06;10219463;28;20055;-78
2022/07/23 09:55:35;;;;;;;3.85;3.45;;;;;;;22.88;46.49;100797.16;10194453;28;20048;-77
2022/07/23 10:00:38;;;;;;;5.75;3.53;;;;;;;22.51;46.40;100791.69;10196403;28;20107;-78
2022/07/23 10:05:44;;;;;;;4.32;3.13;;;;;;;22.26;47.32;100795.81;10203377;28;20218;-78
2022/07/23 10:11:05;;;;;;;5.82;3.53;;;;;;;22.75;46.29;100798.72;10205066;28;20058;-78
2022/07/23 10:16:30;;;;;;;5.05;3.67;;;;;;;21.21;46.82;100792.16;10208783;28;20047;-78
2022/07/23 10:21:43;;;;;;;5.03;3.75;;;;;;;23.21;45.81;100797.50;10205955;28;21684;-78
2022/07/23 10:26:56;;;;;;;5.55;3.15;;;;;;;22.09;47.67;100795.16;10208204;28;20246;-77
2022/07/23 10:32:06;;;;;;;4.90;2.88;;;;;;;23.41;42.65;100787.53;10202252;29;20188;-78
2022/07/23 10:37:18;;;;;;;4.40;2.90;;;;;;;22.64;45.93;100792.91;10206225;28;20781;-78
2022/07/23 10:42:34;;;;;;;2.60;2.40;;;;;;;23.48;42.97;100776.63;10209451;28;20138;-78
2022/07/23 10:47:41;;;;;;;5.75;2.60;;;;;;;22.18;46.44;100780.34;10207764;28;20138;-78
2022/07/23 10:53:19;;;;;;;4.57;3.07;;;;;;;22.19;46.83;100775.69;10200409;28;20051;-78
2022/07/23 10:58:24;;;;;;;4.15;2.78;;;;;;;24.12;41.72;100781.03;10208833;28;20134;-79
2022/07/23 11:03:33;;;;;;;4.43;2.60;;;;;;;24.03;42.62;100777.63;10199867;28;20155;-79
2022/07/23 11:08:37;;;;;;;4.57;2.70;;;;;;;23.38;42.65;100782.44;10199699;28;20058;-77
2022/07/23 11:13:46;;;;;;;3.60;2.50;;;;;;;24.81;40.30;100774.50;10196591;28;20096;-78
2022/07/23 11:19:13;;;;;;;5.35;2.30;;;;;;;23.04;45.03;100777.72;10201343;28;20661;-78
2022/07/23 11:24:23;;;;;;;6.80;2.20;;;;;;;24.39;42.01;100765.50;10205302;28;21353;-78
2022/07/23 11:29:51;;;;;;;2.83;2.17;;;;;;;25.92;40.24;100765.59;10200932;28;20138;-78
2022/07/23 11:34:54;;;;;;;4.07;2.05;;;;;;;26.83;38.49;100763.69;10194783;28;20048;-78
2022/07/23 11:39:59;;;;;;;2.25;1.92;;;;;;;26.86;38.56;100766.00;10207691;28;21319;-77
2022/07/23 11:45:02;;;;;;;4.40;2.55;;;;;;;23.37;42.61;100775.28;10202245;28;20067;-76
2022/07/23 11:50:07;;;;;;;2.28;2.08;;;;;;;25.71;40.14;100765.88;10199712;28;20126;-77
2022/07/23 11:55:15;;;;;;;3.13;1.73;;;;;;;27.00;37.28;100769.50;10205559;28;20622;-78
2022/07/23 12:00:20;;;;;;;2.35;1.42;;;;;;;27.26;37.36;100761.00;10200812;28;20083;-78
2022/07/23 12:05:26;;;;;;;1.70;1.58;;;;;;;27.01;36.53;100761.00;10204009;28;20055;-78
2022/07/23 12:10:31;;;;;;;5.45;1.75;;;;;;;27.53;38.05;100772.66;10200423;28;20083;-79
2022/07/23 12:15:38;;;;;;;2.97;1.40;;;;;;;28.30;37.33;100760.31;10201010;28;20153;-78
2022/07/23 12:20:43;;;;;;;3.35;1.90;;;;;;;25.58;37.65;100767.53;10196351;28;20082;-78
2022/07/23 12:25:48;;;;;;;3.13;1.30;;;;;;;25.95;37.51;100756.06;10199537;28;20051;-77
2022/07/23 12:30:52;;;;;;;3.45;1.42;;;;;;;26.43;36.73;100761.16;10207472;28;20048;-78
2022/07/23 12:35:57;;;;;;;1.88;1.17;;;;;;;25.90;37.57;100753.94;10201738;28;20066;-78
2022/07/23 12:41:01;;;;;;;2.22;1.27;;;;;;;27.03;38.27;100758.03;10200913;28;20686;-77
2022/07/23 12:46:06;;;;;;;4.82;1.27;;;;;;;27.10;36.13;100756.91;10192984;28;20058;-79
2022/07/23 12:51:15;;;;;;;1.65;1.20;;;;;;;26.84;35.99;100755.19;10198178;28;20043;-79
2022/07/23 12:56:23;;;;;;;1.75;1.20;;;;;;;26.61;37.63;100766.78;10199643;28;20122;-78
2022/07/23 13:01:28;;;;;;;4.00;1.30;;;;;;;27.27;37.13;100770.97;10197351;28;20083;-79
2022/07/23 13:06:34;;;;;;;4.50;1.13;;;;;;;24.53;39.55;100770.00;10207010;28;20726;-77
2022/07/23 13:11:38;;;;;;;2.22;1.50;;;;;;;26.91;36.64;100763.44;10197566;28;20200;-77
2022/07/23 13:16:42;;;;;;;3.88;1.08;;;;;;;26.70;36.68;100770.94;10203918;28;20083;-77
2022/07/23 13:21:46;;;;;;;1.83;1.25;;;;;;;26.31;36.67;100760.16;10199928;28;20051;-78
2022/07/23 13:26:51;;;;;;;1.30;1.20;;;;;;;26.71;36.80;100760.75;10189581;28;20138;-78
2022/07/23 13:31:54;;;;;;;1.23;0.90;;;;;;;28.27;34.40;100756.94;10194436;28;20050;-79
2022/07/23 13:36:58;;;;;;;1.20;1.10;;;;;;;26.91;35.84;100753.25;10209583;28;20122;-78
2022/07/23 13:42:02;;;;;;;0.90;0.90;;;;;;;27.12;35.51;100759.41;10193089;28;20063;-78
2022/07/23 13:47:08;;;;;;;1.42;1.17;;;;;;;26.78;35.89;100758.81;10198070;29;20070;-78
2022/07/23 13:52:12;;;;;;;1.90;1.05;;;;;;;25.08;38.11;100758.06;10200959;28;20055;-78
2022/07/23 13:57:16;;;;;;;3.92;0.93;;;;;;;26.34;38.67;100759.72;10199206;28;20055;-78
2022/07/23 14:02:19;;;;;;;2.70;1.27;;;;;;;26.13;36.44;100753.44;10203316;28;20197;-78
2022/07/23 14:07:27;;;;;;;2.72;1.25;;;;;;;27.29;36.34;100754.19;10199139;28;20065;-78
2022/07/23 14:12:31;;;;;;;1.92;1.00;;;;;;;27.43;36.05;100757.69;10184288;28;20051;-78
2022/07/23 14:17:36;;;;;;;3.17;1.20;;;;;;;26.89;36.83;100760.88;10203125;28;20134;-76
2022/07/23 14:22:39;;;;;;;1.60;1.00;;;;;;;29.27;33.13;100747.16;10202947;28;20062;-78
2022/07/23 14:27:44;;;;;;;2.80;0.90;;;;;;;27.63;34.59;100757.50;10195978;28;20051;-77
2022/07/23 14:32:48;;;;;;;1.48;0.80;;;;;;;28.12;35.27;100763.97;10185406;28;20047;-78
2022/07/23 14:37:50;;;;;;;1.60;1.00;;;;;;;29.29;32.84;100750.56;10197870;28;20087;-76
2022/07/23 14:42:55;;;;;;;1.77;1.10;;;;;;;29.50;31.09;100751.00;10201748;28;21522;-78
2022/07/23 14:47:58;;;;;;;0.80;0.80;;;;;;;29.71;32.73;100750.44;10195945;28;20084;-78
2022/07/23 14:53:01;;;;;;;1.08;0.93;;;;;;;29.88;31.60;100757.97;10190977;28;20468;-78
2022/07/23 14:58:06;;;;;;;2.47;0.90;;;;;;;29.64;31.73;100757.16;10197947;28;20043;-78
2022/07/23 15:03:09;;;;;;;3.15;1.38;;;;;;;28.78;33.10;100759.47;10203843;28;20039;-78
2022/07/23 15:08:12;;;;;;;4.25;1.15;;;;;;;28.32;33.99;100755.41;10202850;28;20672;-78
2022/07/23 15:13:16;;;;;;;2.33;1.33;;;;;;;28.40;32.63;100757.84;10199675;28;20732;-79
2022/07/23 15:18:20;;;;;;;2.25;1.05;;;;;;;29.58;32.45;100748.72;10212538;28;20043;-78
2022/07/23 15:23:23;;;;;;;1.85;1.15;;;;;;;29.93;31.29;100745.09;10209365;28;20043;-79
2022/07/23 15:28:29;;;;;;;1.58;0.95;;;;;;;28.58;33.92;100752.31;10200770;28;20043;-79
2022/07/23 15:33:32;;;;;;;1.98;0.95;;;;;;;26.69;35.26;100757.41;10208976;28;20055;-76
2022/07/23 15:38:35;;;;;;;4.75;1.20;;;;;;;27.69;33.92;100746.38;10202437;28;20126;-78
2022/07/23 15:43:39;;;;;;;2.88;1.25;;;;;;;28.63;34.07;100751.59;10218284;28;20186;-79
2022/07/23 15:48:42;;;;;;;2.45;1.05;;;;;;;27.23;33.97;100753.16;10199172;28;20089;-78
2022/07/23 15:53:45;;;;;;;1.92;1.10;;;;;;;26.63;34.90;100748.13;10202401;28;20877;-79
2022/07/23 15:58:52;;;;;;;2.13;1.27;;;;;;;27.90;34.18;100736.81;10201742;28;20056;-79
2022/07/23 16:03:54;;;;;;;2.20;1.00;;;;;;;27.52;33.58;100739.78;10200545;28;20159;-79
2022/07/23 16:08:57;;;;;;;2.47;1.05;;;;;;;28.33;33.51;100735.84;10206024;28;20046;-77
2022/07/23 16:14:07;;;;;;;4.53;1.40;;;;;;;29.21;32.75;100733.44;10207750;28;20047;-77
2022/07/23 16:19:11;;;;;;;1.77;1.02;;;;;;;28.70;32.61;100730.22;10199233;28;20132;-79
2022/07/23 16:24:13;;;;;;;2.40;1.08;;;;;;;27.04;34.96;100735.75;10211391;28;20054;-77
2022/07/23 16:29:18;;;;;;;2.00;1.08;;;;;;;26.75;35.68;100731.72;10200308;28;20059;-78
2022/07/23 16:34:22;;;;;;;1.73;1.27;;;;;;;26.19;35.63;100726.94;10203955;28;20066;-76
2022/07/23 16:39:25;;;;;;;0.90;0.90;;;;;;;27.17;34.42;100735.63;10202219;28;20145;-79
2022/07/23 16:44:29;;;;;;;1.45;1.23;;;;;;;28.15;33.80;100727.59;10200100;28;20051;-76
2022/07/23 16:49:33;;;;;;;1.60;1.13;;;;;;;27.94;33.81;100734.41;10202883;28;20083;-77
2022/07/23 16:54:36;;;;;;;1.42;1.30;;;;;;;26.78;35.02;100733.19;10204928;28;20044;-77
2022/07/23 16:59:40;;;;;;;2.50;2.10;;;;;;;30.89;30.36;100719.50;10201469;28;20103;-79
2022/07/23 17:04:43;;;;;;;2.35;1.20;;;;;;;32.82;27.62;100725.94;10204096;28;20086;-79
2022/07/23 17:09:46;;;;;;;1.92;1.60;;;;;;;35.04;25.06;100727.50;10188825;28;20883;-79
2022/07/23 17:14:50;;;;;;;1.80;1.42;;;;;;;36.42;24.24;100729.03;10205063;28;20089;-79
2022/07/23 17:19:53;;;;;;;1.90;1.10;;;;;;;35.37;24.61;100735.56;10192065;28;20146;-79
2022/07/23 17:24:56;;;;;;;1.50;1.40;;;;;;;37.29;23.96;100736.75;10195372;28;21281;-79
2022/07/23 17:30:00;;;;;;;3.55;1.85;;;;;;;36.38;24.13;100737.19;10204872;28;20114;-77
2022/07/23 17:35:04;;;;;;;1.10;0.95;;;;;;;35.31;25.28;100743.13;10203151;28;20050;-77
2022/07/23 17:40:08;;;;;;;1.00;1.00;;;;;;;33.29;25.76;100736.34;10195419;28;20517;-78
2022/07/23 17:45:15;;;;;;;0.95;0.82;;;;;;;31.71;28.76;100729.97;10199964;28;20051;-78
2022/07/23 17:50:18;;;;;;;2.30;0.93;;;;;;;33.61;27.06;100749.34;10216843;28;20500;-78
2022/07/23 17:55:22;;;;;;;1.27;1.00;;;;;;;33.16;27.54;100735.97;10240508;28;20511;-78
2022/07/23 18:00:29;;;;;;;2.10;1.10;;;;;;;31.09;30.44;100746.75;10228466;28;20145;-79
2022/07/23 18:05:32;;;;;;;1.17;1.00;;;;;;;28.90;32.94;100749.25;10231105;28;20661;-78
2022/07/23 18:10:36;;;;;;;8.98;1.92;;;;;;;26.77;35.70;100745.25;10218832;28;21222;-78
2022/07/23 18:15:40;;;;;;;3.70;1.80;;;;;;;25.35;38.29;100754.25;10213251;28;20108;-77
2022/07/23 18:20:44;;;;;;;2.83;1.27;;;;;;;24.89;39.71;100770.72;10187860;28;20079;-77
2022/07/23 18:25:47;;;;;;;3.10;1.20;;;;;;;24.26;40.84;100766.31;10198669;28;20406;-78
2022/07/23 18:30:52;;;;;;;1.13;1.13;;;;;;;23.54;41.54;100764.00;10202311;28;20453;-79
2022/07/23 18:35:55;;;;;;;3.75;2.00;;;;;;;23.33;42.84;100764.91;10204417;28;20058;-79
2022/07/23 18:40:59;;;;;;;2.65;1.35;;;;;;;23.18;43.34;100770.50;10235050;28;20077;-79
2022/07/23 18:46:03;;;;;;;2.42;1.10;;;;;;;23.03;43.35;100778.75;10238863;28;20043;-78
2022/07/23 18:51:06;;;;;;;2.58;1.30;;;;;;;22.83;44.49;100778.56;10241709;28;20121;-78
2022/07/23 18:56:09;;;;;;;2.35;1.20;;;;;;;22.64;44.98;100776.47;10225591;28;20054;-79
2022/07/23 19:01:13;;;;;;;1.35;1.13;;;;;;;22.44;44.96;100790.78;10208608;28;20044;-79
2022/07/23 19:06:16;;;;;;;2.20;1.15;;;;;;;22.25;45.52;100785.91;10227057;28;20102;-79
2022/07/23 19:11:19;;;;;;;1.27;1.17;;;;;;;22.07;45.71;100789.88;10234928;28;20233;-78
2022/07/23 19:16:23;;;;;;;1.40;1.30;;;;;;;21.95;45.95;100793.28;10235629;28;20816;-78
2022/07/23 19:21:26;;;;;;;1.42;1.30;;;;;;;21.77;46.58;100804.59;10228878;28;20093;-77
2022/07/23 19:26:30;;;;;;;1.70;1.60;;;;;;;21.66;47.40;100812.19;10243879;28;20047;-77
2022/07/23 19:31:34;;;;;;;1.40;1.30;;;;;;;21.57;47.33;100812.47;10244129;28;20051;-78
2022/07/23 19:36:37;;;;;;;1.70;1.60;;;;;;;21.43;47.90;100819.63;10236508;28;20067;-79
2022/07/23 19:41:40;;;;;;;2.90;1.33;;;;;;;21.33;48.15;100828.06;10236491;28;20064;-79
2022/07/23 19:46:44;;;;;;;2.38;1.23;;;;;;;21.18;48.71;100835.38;10239223;28;20084;-78
2022/07/23 19:51:47;;;;;;;3.42;1.48;;;;;;;20.99;47.67;100843.00;10235379;28;20054;-77
2022/07/23 19:56:50;;;;;;;1.40;1.30;;;;;;;20.93;48.39;100845.59;10240162;28;20070;-79
2022/07/23 20:01:54;;;;;;;3.78;1.38;;;;;;;20.86;48.83;100847.34;10225830;28;20143;-77
2022/07/23 20:06:57;;;;;;;2.13;1.27;;;;;;;20.78;49.44;100846.38;10235805;28;20159;-78
2022/07/23 20:12:00;;;;;;;1.45;1.10;;;;;;;20.64;49.71;100847.13;10204560;28;20053;-77
2022/07/23 20:17:04;;;;;;;1.88;1.23;;;;;;;20.49;49.78;100855.25;10200428;28;20102;-78
2022/07/23 20:22:10;;;;;;;1.30;1.20;;;;;;;20.31;50.15;100835.53;10202918;28;20766;-76
2022/07/23 20:27:13;;;;;;;1.58;1.48;;;;;;;20.25;51.03;100844.41;10230140;28;20236;-78
2022/07/23 20:32:17;;;;;;;1.52;1.20;;;;;;;20.18;51.61;100837.94;10226830;28;20521;-77
2022/07/23 20:37:21;;;;;;;4.82;1.83;;;;;;;20.08;51.74;100843.63;10230590;28;20078;-77
2022/07/23 20:42:23;;;;;;;3.28;1.80;;;;;;;20.03;51.92;100844.16;10234058;28;20107;-77
2022/07/23 20:47:28;;;;;;;3.25;1.60;;;;;;;19.98;52.10;100851.16;10233268;28;20158;-76
2022/07/23 20:52:30;;;;;;;2.78;1.75;;;;;;;19.81;52.16;100845.75;10236336;28;20097;-76
2022/07/23 20:57:33;;;;;;;2.42;2.05;;;;;;;19.68;53.01;100846.25;10228117;28;20047;-77
2022/07/23 21:02:37;;;;;;;2.40;2.20;;;;;;;19.68;53.40;100851.72;10230667;28;20114;-76
2022/07/23 21:07:43;;;;;;;2.35;2.15;;;;;;;19.68;53.76;100856.31;10231476;28;20066;-79
2022/07/23 21:12:47;;;;;;;6.43;2.60;;;;;;;19.64;53.65;100854.97;10221845;28;20055;-78
2022/07/23 21:17:51;;;;;;;2.47;2.25;;;;;;;19.61;54.06;100856.16;10211903;28;20094;-77
2022/07/23 21:22:54;;;;;;;3.95;2.40;;;;;;;19.54;54.03;100860.56;10215556;28;20059;-79
2022/07/23 21:27:57;;;;;;;2.63;2.00;;;;;;;19.45;53.94;100862.44;10200479;28;20505;-79
2022/07/23 21:33:01;;;;;;;2.15;1.95;;;;;;;19.28;54.53;100859.88;10219772;28;20067;-77
2022/07/23 21:38:04;;;;;;;2.28;2.10;;;;;;;19.22;54.80;100866.84;10216960;28;20520;-79
2022/07/23 21:43:07;;;;;;;2.58;2.10;;;;;;;19.19;54.47;100865.31;10228766;28;20054;-78
2022/07/23 21:48:12;;;;;;;2.15;1.95;;;;;;;19.17;54.92;100870.09;10199907;28;20047;-80
2022/07/23 21:53:16;;;;;;;2.20;2.00;;;;;;;19.18;54.77;100871.81;10208216;28;20150;-78
2022/07/23 21:58:19;;;;;;;3.05;1.80;;;;;;;19.10;54.48;100873.66;10199731;28;21190;-79
2022/07/23 22:03:23;;;;;;;1.80;1.70;;;;;;;18.97;55.01;100866.84;10204642;28;20187;-80
2022/07/23 22:08:26;;;;;;;1.70;1.60;;;;;;;18.87;55.26;100868.00;10198014;28;20043;-80
2022/07/23 22:13:29;;;;;;;4.55;1.83;;;;;;;18.78;54.93;100875.31;10210746;28;20057;-77
2022/07/23 22:18:33;;;;;;;1.90;1.80;;;;;;;18.60;55.11;100869.97;10198519;28;20047;-77
2022/07/23 22:23:35;;;;;;;1.92;1.67;;;;;;;18.37;55.74;100872.41;10209704;28;20122;-78
2022/07/23 22:28:38;;;;;;;2.63;2.42;;;;;;;18.21;56.47;100870.50;10206363;28;20059;-78
2022/07/23 22:33:42;;;;;;;5.82;2.92;;;;;;;18.25;56.36;100873.72;10212798;28;20552;-76
2022/07/23 22:38:45;;;;;;;3.30;2.85;;;;;;;18.21;56.92;100870.50;10201030;28;20048;-77
2022/07/23 22:43:48;;;;;;;4.30;3.53;;;;;;;18.10;57.69;100876.19;10194917;28;20063;-78
2022/07/23 22:48:52;;;;;;;4.40;3.70;;;;;;;17.95;57.81;100875.06;10198291;28;20138;-78
2022/07/23 22:53:55;;;;;;;5.13;3.50;;;;;;;17.88;58.03;100869.41;10199687;28;20051;-78
2022/07/23 22:58:58;;;;;;;5.10;3.30;;;;;;;17.92;58.01;100874.38;10191812;28;20051;-78
2022/07/23 23:04:21;;;;;;;;;;;;;;;17.92;58.45;100881.66;10208589;28;20517;-79
2022/07/23 23:09:25;;;;;;;3.50;3.20;;;;;;;17.80;58.86;100874.78;10201442;28;19981;-77